Time;durP1;ratioP1;P1;durP2;ratioP2;P2;SDS_P1;SDS_P2;PMS_P1;PMS_P2;Temp;Humidity;BMP_temperature;BMP_pressure;BME280_temperature;BME280_humidity;BME280_pressure;Samples;Min_cycle;Max_cycle;Signal;HPM_P1;HPM_P2
2023/03/10 00:01:50;;;;;;;4.47;1.73;;;9.10;77.90;;;8.97;63.91;95996.00;5085608;28;20565;-70
2023/03/10 00:04:17;;;;;;;4.33;1.93;;;9.10;77.60;;;9.06;63.61;95988.28;5103115;28;20517;-71
2023/03/10 00:06:44;;;;;;;2.40;1.70;;;9.20;77.50;;;9.10;63.97;95996.66;5106487;27;20461;-70
2023/03/10 00:09:12;;;;;;;3.63;1.97;;;9.10;77.50;;;8.97;64.06;95982.53;5088962;28;20979;-70
2023/03/10 00:11:39;;;;;;;4.53;2.20;;;9.10;77.50;;;9.01;64.10;95985.53;5096941;28;20453;-70
2023/03/10 00:14:08;;;;;;;3.70;1.77;;;9.10;77.60;;;8.88;64.25;95992.16;5094232;28;20456;-71
2023/03/10 00:16:35;;;;;;;3.27;2.00;;;9.10;77.80;;;8.89;63.99;95977.63;5093587;28;20546;-70
2023/03/10 00:19:02;;;;;;;3.63;1.73;;;9.10;77.40;;;8.95;64.10;95984.69;5087547;28;20949;-71
2023/03/10 00:21:32;;;;;;;4.90;2.60;;;9.10;77.40;;;8.88;63.74;95986.78;5105137;27;20448;-70
2023/03/10 00:24:00;;;;;;;3.63;1.93;;;9.10;77.40;;;8.98;63.57;95986.06;5087707;28;20886;-69
2023/03/10 00:26:29;;;;;;;4.43;2.20;;;9.10;77.40;;;9.04;63.93;95985.03;5106552;27;20442;-71
2023/03/10 00:28:57;;;;;;;3.30;1.90;;;9.10;77.40;;;9.00;63.60;95979.31;5089692;28;20509;-70
2023/03/10 00:31:27;;;;;;;2.53;1.53;;;9.10;77.50;;;8.89;63.92;95972.25;5087027;28;20459;-71
2023/03/10 00:33:56;;;;;;;3.70;1.80;;;9.10;77.60;;;8.83;64.62;95973.25;5084168;28;20436;-71
2023/03/10 00:36:31;;;;;;;3.83;1.77;;;9.00;77.60;;;8.53;64.69;95942.25;5084184;28;20431;-70
2023/03/10 00:39:00;;;;;;;3.83;2.07;;;9.00;77.80;;;8.83;64.67;95978.63;5119319;27;20450;-70
2023/03/10 00:41:31;;;;;;;3.00;2.03;;;9.00;77.60;;;8.95;64.65;95971.22;5116727;27;20457;-70
2023/03/10 00:43:59;;;;;;;3.00;1.90;;;9.00;77.80;;;8.93;64.01;95981.44;5109925;27;20517;-72
2023/03/10 00:46:29;;;;;;;4.30;2.37;;;9.00;77.50;;;8.93;64.37;95984.13;5088321;28;20471;-70
2023/03/10 00:49:00;;;;;;;4.10;2.23;;;9.00;77.40;;;8.87;63.74;95974.34;5099952;28;20511;-71
2023/03/10 00:51:27;;;;;;;5.33;2.30;;;9.10;77.40;;;8.95;64.70;95981.16;5090304;28;20579;-71
2023/03/10 00:53:55;;;;;;;5.37;1.90;;;9.10;77.40;;;9.01;64.05;95980.94;5109327;27;20580;-71
2023/03/10 00:56:24;;;;;;;5.30;2.30;;;9.10;77.30;;;8.96;64.27;95983.59;5099945;27;20434;-71
2023/03/10 00:58:54;;;;;;;3.97;1.77;;;9.10;77.40;;;9.06;63.83;95972.13;5100362;28;20442;-71
2023/03/10 01:01:26;;;;;;;4.20;1.70;;;9.10;77.30;;;9.04;63.28;95961.59;5125580;27;20435;-69
2023/03/10 01:03:57;;;;;;;6.67;2.03;;;9.10;77.20;;;8.97;63.70;95957.50;5101788;28;20465;-70
2023/03/10 01:06:25;;;;;;;5.40;2.37;;;9.10;77.10;;;9.12;63.50;95954.13;5101511;28;20460;-70
2023/03/10 01:08:53;;;;;;;4.17;1.90;;;9.10;77.30;;;8.96;63.96;95962.06;5083222;28;20479;-70
2023/03/10 01:11:24;;;;;;;4.03;1.80;;;9.10;77.10;;;9.16;63.54;95945.28;5100506;28;20497;-70
2023/03/10 01:13:53;;;;;;;5.03;2.17;;;9.20;77.10;;;9.14;63.25;95946.59;5092252;28;20514;-70
2023/03/10 01:16:20;;;;;;;5.83;2.07;;;9.20;77.10;;;9.15;62.93;95940.13;5087625;28;20443;-71
2023/03/10 01:18:47;;;;;;;6.40;2.43;;;9.20;76.90;;;9.19;63.15;95933.16;5095565;28;20540;-71
2023/03/10 01:21:19;;;;;;;3.80;2.23;;;9.20;76.80;;;9.14;63.30;95925.03;5115035;27;20857;-70
2023/03/10 01:23:46;;;;;;;4.60;2.50;;;9.30;76.90;;;9.20;62.96;95924.81;5118322;27;20551;-71
2023/03/10 01:26:13;;;;;;;3.93;1.70;;;9.30;76.80;;;9.25;62.82;95921.34;5088251;28;20444;-72
2023/03/10 01:28:41;;;;;;;4.57;2.40;;;9.30;76.80;;;9.20;63.57;95921.31;5089538;27;20475;-71
2023/03/10 01:31:08;;;;;;;8.33;2.67;;;9.30;76.70;;;9.24;63.08;95914.34;5118623;27;20493;-70
2023/03/10 01:33:38;;;;;;;2.87;1.70;;;9.30;76.80;;;9.29;62.96;95911.66;5083838;28;20454;-70
2023/03/10 01:36:09;;;;;;;3.47;1.70;;;9.30;76.70;;;8.84;62.93;95838.34;5094064;28;20466;-71
2023/03/10 01:38:38;;;;;;;4.00;1.93;;;9.30;76.60;;;9.31;62.33;95898.75;5081391;28;21218;-71
2023/03/10 01:41:08;;;;;;;3.73;2.03;;;9.30;76.50;;;9.24;63.17;95898.19;5080041;28;20447;-70
2023/03/10 01:43:37;;;;;;;3.63;1.87;;;9.30;76.60;;;9.22;62.73;95881.47;5072669;28;20989;-70
2023/03/10 01:46:47;;;;;;;6.30;2.20;;;9.30;76.60;;;9.17;63.42;95871.44;5075354;28;20524;-70
2023/03/10 01:49:24;;;;;;;3.17;1.90;;;9.30;76.50;;;9.24;62.82;95868.53;5083052;28;20749;-70
2023/03/10 01:51:58;;;;;;;2.83;1.50;;;9.30;76.60;;;8.99;62.99;95829.56;5084181;28;20461;-70
2023/03/10 01:54:33;;;;;;;3.60;1.60;;;9.30;76.50;;;9.26;63.36;95863.69;5077836;28;20456;-71
2023/03/10 01:57:01;;;;;;;4.13;2.20;;;9.30;76.50;;;9.36;63.34;95854.84;5082707;28;20465;-72
2023/03/10 01:59:28;;;;;;;4.33;1.70;;;9.30;76.80;;;9.31;63.44;95852.94;5079380;28;20463;-70
2023/03/10 02:01:58;;;;;;;2.90;1.90;;;9.40;77.00;;;9.23;63.59;95841.84;5107165;27;20452;-71
2023/03/10 02:04:34;;;;;;;7.70;1.90;;;9.30;77.00;;;9.19;63.64;95809.25;5082340;28;20517;-72
2023/03/10 02:07:05;;;;;;;4.50;2.30;;;9.30;77.10;;;9.38;63.24;95827.66;5103969;28;20458;-71
2023/03/10 02:09:38;;;;;;;2.40;1.63;;;9.40;76.90;;;9.32;63.33;95841.09;5096519;28;20469;-71
2023/03/10 02:12:07;;;;;;;3.80;2.30;;;9.30;77.00;;;9.32;63.24;95824.91;5100634;28;20445;-71
2023/03/10 02:14:35;;;;;;;2.70;1.60;;;9.30;77.00;;;9.25;63.17;95840.50;5092325;28;20455;-72
2023/03/10 02:17:04;;;;;;;3.27;2.13;;;9.20;77.00;;;9.11;63.06;95823.19;5097126;28;20451;-68
2023/03/10 02:19:54;;;;;;;5.57;2.00;;;9.20;77.00;;;9.18;64.10;95818.41;5103959;28;20443;-69
2023/03/10 02:22:21;;;;;;;3.93;1.90;;;9.20;77.20;;;9.18;63.41;95815.69;5094973;28;20477;-69
2023/03/10 02:24:54;;;;;;;4.73;2.40;;;9.20;77.00;;;9.22;62.92;95814.09;5116224;27;20849;-71
2023/03/10 02:27:27;;;;;;;4.47;2.00;;;9.10;76.90;;;9.21;63.41;95804.41;5103410;28;20539;-70
2023/03/10 02:30:02;;;;;;;5.83;1.90;;;9.10;77.10;;;9.14;63.98;95801.09;5110319;28;20456;-71
2023/03/10 02:32:34;;;;;;;2.90;1.73;;;9.10;77.00;;;9.04;63.20;95783.84;5082293;28;20441;-71
2023/03/10 02:35:02;;;;;;;1.80;1.50;;;9.10;77.00;;;9.09;62.91;95787.63;5084530;28;20465;-71
2023/03/10 02:37:32;;;;;;;4.70;1.73;;;9.10;76.80;;;8.95;64.05;95769.22;5090016;28;20834;-70
2023/03/10 02:39:59;;;;;;;5.07;1.73;;;9.10;76.60;;;9.08;63.17;95776.03;5078265;28;20450;-70
2023/03/10 02:42:33;;;;;;;3.33;1.57;;;9.10;76.70;;;9.10;63.38;95767.69;5093824;28;20499;-72
2023/03/10 02:45:00;;;;;;;4.93;2.20;;;9.10;76.50;;;8.91;63.17;95739.28;5082879;28;20818;-72
2023/03/10 02:47:28;;;;;;;3.53;1.67;;;9.10;76.40;;;9.11;63.00;95761.22;5083757;28;20482;-71
2023/03/10 02:49:55;;;;;;;5.00;1.77;;;9.10;76.50;;;9.19;62.96;95760.75;5092304;28;20482;-71
2023/03/10 02:52:29;;;;;;;3.10;1.80;;;9.10;76.60;;;9.26;62.27;95761.31;5127443;27;20453;-71
2023/03/10 02:54:56;;;;;;;4.23;1.87;;;9.20;76.60;;;9.10;63.28;95759.59;5088938;28;20450;-72
2023/03/10 02:57:24;;;;;;;5.17;2.40;;;9.20;76.80;;;9.05;63.85;95739.66;5127030;27;20444;-69
2023/03/10 02:59:52;;;;;;;2.97;1.90;;;9.20;77.20;;;9.03;65.31;95747.19;5092301;28;20981;-71
2023/03/10 03:02:19;;;;;;;4.40;2.20;;;9.10;77.60;;;9.00;66.21;95750.38;5091709;28;20961;-71
2023/03/10 03:04:46;;;;;;;2.60;1.70;;;9.10;78.10;;;8.96;66.32;95741.22;5098989;28;20480;-71
2023/03/10 03:07:14;;;;;;;2.13;1.50;;;9.10;78.60;;;8.96;66.54;95738.53;5102442;28;20449;-69
2023/03/10 03:09:41;;;;;;;7.90;2.60;;;9.00;79.20;;;8.74;66.82;95723.31;5110511;27;20838;-70
2023/03/10 03:12:09;;;;;;;2.50;1.60;;;9.00;79.20;;;8.73;67.69;95727.09;5092035;28;20475;-69
2023/03/10 03:14:36;;;;;;;3.43;2.03;;;8.90;79.40;;;8.82;67.97;95737.34;5088131;28;20491;-70
2023/03/10 03:17:05;;;;;;;5.67;2.10;;;8.90;79.40;;;8.86;67.99;95735.75;5097659;28;21006;-71
2023/03/10 03:19:32;;;;;;;2.63;1.73;;;8.90;79.80;;;8.81;67.47;95744.63;5080180;28;20438;-70
2023/03/10 03:21:59;;;;;;;6.43;1.90;;;8.90;79.60;;;8.84;67.55;95741.41;5088734;28;20470;-70
2023/03/10 03:24:27;;;;;;;5.30;2.43;;;8.90;79.90;;;8.86;67.85;95743.84;5087473;28;20478;-74
2023/03/10 03:26:54;;;;;;;3.47;2.23;;;8.90;79.90;;;8.73;68.50;95740.56;5090570;28;20448;-72
2023/03/10 03:29:21;;;;;;;3.77;2.00;;;8.90;80.20;;;8.76;68.85;95742.72;5081821;28;20529;-71
2023/03/10 03:31:48;;;;;;;3.77;1.90;;;8.80;80.50;;;8.78;69.25;95739.75;5085534;28;20536;-72
2023/03/10 03:34:19;;;;;;;5.10;2.20;;;8.80;81.00;;;8.57;70.18;95744.19;5094106;28;20469;-69
2023/03/10 03:36:46;;;;;;;4.67;2.10;;;8.70;81.10;;;8.68;69.79;95748.56;5097603;28;20458;-73
2023/03/10 03:39:16;;;;;;;4.20;2.20;;;8.80;81.60;;;8.50;70.36;95747.13;5088667;28;20505;-74
2023/03/10 03:41:43;;;;;;;4.83;2.47;;;8.70;81.60;;;8.44;70.74;95762.38;5092598;28;20445;-74
2023/03/10 03:44:10;;;;;;;3.10;1.80;;;8.60;82.40;;;8.34;71.75;95757.75;5085509;28;20454;-72
2023/03/10 03:46:37;;;;;;;6.00;2.33;;;8.50;82.50;;;8.34;71.47;95746.97;5079356;28;20526;-71
2023/03/10 03:49:04;;;;;;;5.93;2.50;;;8.50;83.00;;;8.40;71.67;95745.13;5082552;28;20950;-72
2023/03/10 03:51:35;;;;;;;3.43;2.10;;;8.50;83.00;;;8.41;71.20;95746.72;5095368;28;20504;-73
2023/03/10 03:54:02;;;;;;;4.43;2.60;;;8.50;83.30;;;8.47;71.70;95759.19;5084522;28;20481;-72
2023/03/10 03:56:29;;;;;;;5.00;2.60;;;8.50;83.20;;;8.29;71.64;95743.44;5093311;28;20460;-73
2023/03/10 03:58:58;;;;;;;4.27;2.43;;;8.50;83.30;;;8.27;72.71;95740.19;5093312;28;20819;-72
2023/03/10 04:01:25;;;;;;;5.93;2.93;;;8.40;84.10;;;8.41;72.17;95745.94;5092940;28;20533;-74
2023/03/10 04:03:52;;;;;;;4.00;2.40;;;8.50;83.90;;;8.29;72.10;95748.81;5097619;28;20458;-72
2023/03/10 04:06:19;;;;;;;6.33;2.40;;;8.40;83.80;;;8.28;72.53;95749.88;5122256;27;20435;-74
2023/03/10 04:08:49;;;;;;;3.50;2.10;;;8.40;84.20;;;8.31;72.45;95750.16;5107864;27;20857;-74
2023/03/10 04:11:16;;;;;;;6.13;2.83;;;8.40;84.70;;;8.16;73.17;95748.16;5086244;28;20457;-75
2023/03/10 04:13:44;;;;;;;3.90;2.60;;;8.40;84.70;;;8.17;72.89;95735.50;5086799;28;20995;-74
2023/03/10 04:16:11;;;;;;;5.07;2.77;;;8.30;84.50;;;8.16;73.25;95734.72;5093355;28;20433;-73
2023/03/10 04:18:38;;;;;;;3.40;2.43;;;8.30;84.70;;;8.11;73.25;95748.09;5104589;28;20458;-73
2023/03/10 04:21:06;;;;;;;5.03;2.73;;;8.30;85.20;;;8.21;73.41;95739.31;5106666;27;20467;-72
2023/03/10 04:23:33;;;;;;;3.50;2.07;;;8.30;85.30;;;8.26;73.13;95733.16;5096469;28;20449;-73
2023/03/10 04:26:06;;;;;;;4.00;2.67;;;8.30;85.00;;;8.16;73.49;95740.09;5101636;28;20444;-72
2023/03/10 04:28:33;;;;;;;6.03;2.00;;;8.30;85.30;;;8.19;73.45;95742.25;5114222;27;20467;-72
2023/03/10 04:31:01;;;;;;;3.30;2.10;;;8.30;85.30;;;8.18;73.08;95746.03;5109294;27;20447;-72
2023/03/10 04:33:28;;;;;;;6.33;2.20;;;8.30;85.20;;;7.89;73.57;95689.03;5096337;28;20456;-70
2023/03/10 04:35:55;;;;;;;2.50;2.07;;;8.30;86.00;;;8.25;73.03;95742.28;5078994;28;20453;-72
2023/03/10 04:38:24;;;;;;;4.20;2.37;;;8.40;85.50;;;8.34;73.18;95740.78;5089742;28;20604;-73
2023/03/10 04:40:54;;;;;;;4.93;2.97;;;8.50;85.50;;;8.38;72.73;95746.44;5092275;28;20814;-71
2023/03/10 04:43:23;;;;;;;3.40;2.83;;;8.50;85.40;;;8.34;73.54;95740.78;5079261;28;20550;-73
2023/03/10 04:45:50;;;;;;;3.50;2.77;;;8.50;85.60;;;8.41;73.52;95741.34;5093775;28;21016;-73
2023/03/10 04:48:17;;;;;;;5.10;4.07;;;8.60;85.70;;;8.45;73.59;95738.97;5082179;28;20462;-71
2023/03/10 04:50:44;;;;;;;5.03;4.00;;;8.60;85.70;;;8.52;72.91;95741.47;5087188;28;20842;-71
2023/03/10 04:53:11;;;;;;;4.60;3.97;;;8.60;86.00;;;8.28;73.74;95679.94;5075960;28;20470;-73
2023/03/10 04:55:40;;;;;;;6.77;4.47;;;8.70;86.10;;;8.66;73.44;95734.56;5090094;28;20458;-69
2023/03/10 04:58:07;;;;;;;4.33;3.67;;;8.60;86.30;;;8.59;72.88;95731.31;5104314;28;20446;-73
2023/03/10 05:00:37;;;;;;;7.20;3.80;;;8.70;86.10;;;8.69;73.19;95727.88;5077410;28;20516;-75
2023/03/10 05:03:05;;;;;;;3.60;3.30;;;8.80;86.10;;;8.84;73.52;95716.38;5085800;28;20453;-69
2023/03/10 05:05:34;;;;;;;4.60;2.27;;;8.80;86.30;;;8.64;73.87;95723.25;5084988;28;20452;-70
2023/03/10 05:08:02;;;;;;;7.53;2.00;;;8.80;86.00;;;8.85;74.07;95723.38;5095692;28;20509;-74
2023/03/10 05:10:29;;;;;;;3.43;2.00;;;8.90;86.60;;;8.77;73.51;95722.81;5090522;28;20485;-73
2023/03/10 05:12:56;;;;;;;3.07;1.50;;;8.90;86.50;;;8.75;74.05;95716.88;5085554;28;20459;-73
2023/03/10 05:15:24;;;;;;;4.70;1.83;;;8.90;87.00;;;8.68;74.62;95724.34;5107369;27;20805;-72
2023/03/10 05:17:53;;;;;;;3.40;1.97;;;8.90;86.80;;;8.81;74.27;95723.09;5088240;28;20455;-72
2023/03/10 05:20:20;;;;;;;3.43;1.60;;;8.90;86.90;;;8.86;73.57;95731.19;5098689;28;20519;-69
2023/03/10 05:22:47;;;;;;;3.07;1.53;;;9.00;86.90;;;8.91;74.27;95716.97;5086713;28;20459;-71
2023/03/10 05:25:14;;;;;;;2.17;1.60;;;9.00;86.70;;;8.88;74.02;95725.56;5075877;28;20490;-70
2023/03/10 05:27:41;;;;;;;4.47;1.90;;;9.00;86.60;;;8.77;74.53;95716.59;5102554;28;20503;-70
2023/03/10 05:30:14;;;;;;;3.37;2.07;;;9.00;86.70;;;8.72;74.83;95720.09;5095291;28;20548;-71
2023/03/10 05:32:42;;;;;;;6.30;1.70;;;8.90;87.30;;;8.79;74.05;95698.28;5073139;28;20489;-69
2023/03/10 05:35:11;;;;;;;9.10;2.00;;;8.90;87.60;;;8.62;74.43;95704.66;5084397;28;20470;-70
2023/03/10 05:37:41;;;;;;;4.60;1.90;;;8.80;87.60;;;8.74;74.83;95712.56;5091828;28;20461;-71
2023/03/10 05:40:13;;;;;;;3.20;1.67;;;8.90;87.70;;;8.69;74.03;95709.03;5085809;28;20518;-69
2023/03/10 05:42:41;;;;;;;5.53;2.33;;;8.80;87.80;;;8.65;74.70;95724.88;5094079;27;20450;-72
2023/03/10 05:45:11;;;;;;;7.53;2.13;;;8.80;88.40;;;8.61;75.40;95713.00;5074632;28;20478;-71
2023/03/10 05:47:38;;;;;;;2.87;2.13;;;8.80;88.90;;;8.64;75.97;95707.09;5080409;28;20447;-72
2023/03/10 05:50:07;;;;;;;2.70;2.10;;;8.80;89.30;;;8.60;75.42;95706.81;5110295;27;20498;-68
2023/03/10 05:52:39;;;;;;;4.20;2.37;;;8.80;89.50;;;8.62;75.85;95703.88;5082341;27;20455;-71
2023/03/10 05:55:10;;;;;;;4.80;2.30;;;8.70;89.90;;;8.47;76.78;95697.28;5077342;28;20463;-71
2023/03/10 05:57:38;;;;;;;4.60;2.00;;;8.70;90.40;;;8.58;76.87;95703.56;5090861;28;20466;-74
2023/03/10 06:00:10;;;;;;;3.87;2.20;;;8.70;90.40;;;8.40;77.04;95693.97;5086666;28;20458;-71
2023/03/10 06:02:38;;;;;;;3.13;1.80;;;8.70;90.60;;;8.39;77.51;95684.28;5109462;27;20832;-70
2023/03/10 06:05:08;;;;;;;3.43;1.80;;;8.60;90.70;;;8.57;76.71;95675.03;5108136;27;20461;-72
2023/03/10 06:07:37;;;;;;;3.10;2.33;;;8.70;90.80;;;8.60;76.67;95671.00;5088497;28;20471;-71
2023/03/10 06:10:05;;;;;;;2.37;1.70;;;8.80;90.80;;;8.67;76.85;95676.97;5084127;28;20480;-71
2023/03/10 06:12:33;;;;;;;3.23;1.70;;;8.80;90.90;;;8.62;77.27;95676.94;5086983;28;20446;-73
2023/03/10 06:15:01;;;;;;;2.80;1.67;;;8.80;90.80;;;8.72;77.01;95681.56;5094739;28;20463;-74
2023/03/10 06:17:28;;;;;;;4.13;2.47;;;8.80;90.90;;;8.83;76.83;95687.81;5101055;28;21081;-74
2023/03/10 06:19:55;;;;;;;4.40;1.67;;;8.90;90.70;;;8.78;76.11;95686.72;5097910;27;20451;-74
2023/03/10 06:22:22;;;;;;;2.47;1.80;;;8.90;90.50;;;8.79;76.96;95682.97;5099250;27;20451;-72
2023/03/10 06:24:51;;;;;;;6.43;1.93;;;9.00;90.60;;;8.57;76.59;95637.34;5090258;28;20452;-73
2023/03/10 06:27:19;;;;;;;2.50;1.70;;;9.00;90.50;;;8.89;76.41;95674.13;5085635;28;20472;-74
2023/03/10 06:29:48;;;;;;;3.27;1.70;;;9.10;90.30;;;9.02;76.65;95680.94;5104856;28;20470;-73
2023/03/10 06:32:16;;;;;;;2.77;1.87;;;9.20;90.20;;;9.05;76.12;95683.09;5101665;27;20462;-73
2023/03/10 06:34:43;;;;;;;2.83;1.73;;;9.20;90.00;;;9.18;75.06;95678.31;5082523;28;20458;-73
2023/03/10 06:37:10;;;;;;;1.90;1.70;;;9.30;90.00;;;9.15;75.30;95685.00;5084329;28;20443;-75
2023/03/10 06:39:39;;;;;;;2.27;1.37;;;9.40;89.50;;;8.91;75.97;95641.56;5086027;28;20482;-72
2023/03/10 06:42:08;;;;;;;2.70;1.70;;;9.40;89.50;;;9.20;75.32;95682.31;5095502;27;20449;-74
2023/03/10 06:44:36;;;;;;;4.20;1.40;;;9.40;89.10;;;9.21;75.14;95683.94;5091949;27;20487;-75
2023/03/10 06:47:04;;;;;;;4.40;1.57;;;9.40;89.10;;;9.25;75.13;95678.84;5080746;28;20462;-74
2023/03/10 06:49:33;;;;;;;3.40;1.53;;;9.40;89.00;;;9.24;75.41;95679.94;5079239;28;20476;-75
2023/03/10 06:52:01;;;;;;;3.13;1.90;;;9.50;89.10;;;9.44;74.74;95681.06;5076749;28;20453;-75
2023/03/10 06:54:28;;;;;;;2.50;1.23;;;9.50;89.10;;;9.32;74.82;95673.22;5069918;28;20523;-73
2023/03/10 06:56:55;;;;;;;2.80;1.27;;;9.50;88.60;;;9.58;74.48;95676.78;5081540;28;21379;-74
2023/03/10 06:59:24;;;;;;;1.40;1.20;;;9.60;88.50;;;9.49;73.99;95673.00;5080970;28;20460;-74
2023/03/10 07:01:51;;;;;;;1.40;1.20;;;9.60;88.00;;;9.54;74.18;95673.00;5079642;28;20454;-74
2023/03/10 07:04:19;;;;;;;5.10;1.43;;;9.70;88.00;;;9.79;73.51;95671.44;5075057;28;20996;-73
2023/03/10 07:06:46;;;;;;;4.87;1.60;;;9.70;87.60;;;9.85;73.61;95672.22;5079871;28;20454;-72
2023/03/10 07:09:14;;;;;;;4.57;1.27;;;9.90;87.50;;;9.78;72.52;95675.19;5082317;28;20466;-74
2023/03/10 07:11:41;;;;;;;2.23;1.20;;;9.80;87.10;;;9.77;73.21;95673.56;5085089;28;20449;-75
2023/03/10 07:14:08;;;;;;;1.70;1.40;;;9.80;86.80;;;9.56;73.84;95678.13;5088838;28;20680;-72
2023/03/10 07:16:39;;;;;;;1.20;1.10;;;9.80;86.80;;;9.72;74.07;95676.28;5081764;28;20481;-74
2023/03/10 07:19:06;;;;;;;4.67;1.53;;;9.80;87.30;;;9.59;73.93;95677.59;5102578;27;20452;-76
2023/03/10 07:21:33;;;;;;;1.60;1.13;;;9.80;87.00;;;9.80;73.38;95683.03;5078682;28;20488;-75
2023/03/10 07:24:01;;;;;;;1.80;1.10;;;9.90;86.90;;;10.20;71.53;95692.22;5087381;28;20536;-73
2023/03/10 07:26:28;;;;;;;4.50;1.17;;;10.10;85.40;;;9.74;72.70;95633.66;5092469;28;20463;-73
2023/03/10 07:28:55;;;;;;;1.83;1.60;;;10.20;85.00;;;10.29;71.69;95682.50;5068653;28;20463;-74
2023/03/10 07:31:23;;;;;;;3.97;1.57;;;10.30;85.20;;;10.44;71.41;95679.03;5075757;28;20693;-72
2023/03/10 07:33:51;;;;;;;2.07;1.87;;;10.50;84.90;;;10.28;72.32;95682.78;5073863;28;20462;-73
2023/03/10 07:36:21;;;;;;;2.00;1.80;;;10.40;84.60;;;10.44;71.48;95681.72;5074620;28;20457;-74
2023/03/10 07:38:48;;;;;;;1.33;1.23;;;10.50;84.60;;;10.35;71.69;95677.91;5078794;28;20461;-73
2023/03/10 07:41:18;;;;;;;1.20;1.10;;;10.40;84.20;;;10.10;72.32;95666.06;5092465;28;20462;-73
2023/03/10 07:43:45;;;;;;;2.10;1.30;;;10.30;84.30;;;10.11;71.55;95662.28;5094038;28;20452;-73
2023/03/10 07:46:15;;;;;;;1.30;1.20;;;10.30;84.40;;;10.24;71.99;95669.00;5086826;28;21510;-74
2023/03/10 07:48:42;;;;;;;0.80;0.80;;;10.30;84.70;;;10.37;71.17;95670.34;5075521;28;20459;-74
2023/03/10 07:51:11;;;;;;;3.13;1.20;;;10.40;84.30;;;10.18;71.81;95670.91;5077288;28;20485;-76
2023/03/10 07:53:39;;;;;;;2.13;1.23;;;10.40;84.10;;;10.48;70.93;95669.28;5084228;28;20911;-73
2023/03/10 07:56:09;;;;;;;1.63;1.00;;;10.50;84.30;;;10.84;69.47;95663.00;5085652;28;21087;-74
2023/03/10 07:58:37;;;;;;;1.00;0.90;;;10.70;83.80;;;10.79;69.85;95659.50;5116615;27;20464;-73
2023/03/10 08:01:05;;;;;;;4.33;1.20;;;10.80;83.30;;;10.59;69.92;95650.38;5078967;28;20454;-74
2023/03/10 08:03:32;;;;;;;1.87;1.30;;;10.80;83.30;;;10.86;69.74;95658.13;5082116;28;20459;-74
2023/03/10 08:06:01;;;;;;;2.47;1.13;;;10.90;83.10;;;10.61;70.17;95670.63;5086902;28;21074;-77
2023/03/10 08:08:29;;;;;;;2.27;2.00;;;10.90;83.10;;;10.83;69.74;95664.09;5083114;28;20479;-73
2023/03/10 08:11:02;;;;;;;2.07;1.43;;;10.90;83.00;;;11.30;68.47;95656.63;5112175;27;20825;-74
2023/03/10 08:13:30;;;;;;;1.27;1.10;;;11.20;82.70;;;11.19;68.44;95663.94;5116760;27;20455;-74
2023/03/10 08:16:00;;;;;;;2.40;1.00;;;11.30;82.20;;;11.15;68.30;95678.31;5083074;28;20458;-73
2023/03/10 08:18:28;;;;;;;1.70;1.23;;;11.30;81.80;;;11.09;68.69;95668.59;5100743;28;20466;-72
2023/03/10 08:20:55;;;;;;;2.80;1.23;;;11.30;82.10;;;10.93;68.54;95660.53;5146245;27;20515;-73
2023/03/10 08:23:23;;;;;;;2.40;1.07;;;11.20;81.90;;;10.72;69.21;95666.00;5099871;28;20467;-73
2023/03/10 08:25:51;;;;;;;2.20;1.17;;;11.00;81.70;;;10.80;69.34;95667.34;5083536;28;20468;-74
2023/03/10 08:28:19;;;;;;;0.63;0.63;;;11.00;81.90;;;10.91;68.83;95670.81;5081820;28;20460;-71
2023/03/10 08:30:46;;;;;;;1.50;1.20;;;11.00;81.80;;;11.25;68.08;95655.84;5086602;28;20475;-74
2023/03/10 08:33:14;;;;;;;0.83;0.60;;;11.20;82.00;;;11.01;68.26;95661.88;5088649;28;20454;-71
2023/03/10 08:35:41;;;;;;;1.07;0.97;;;11.20;81.60;;;11.15;68.04;95659.41;5086123;28;20447;-71
2023/03/10 08:38:08;;;;;;;1.17;1.00;;;11.30;81.70;;;11.41;67.86;95653.84;5085921;28;20528;-73
2023/03/10 08:40:36;;;;;;;3.03;1.20;;;11.40;81.70;;;11.55;66.49;95665.66;5072961;28;20458;-73
2023/03/10 08:43:05;;;;;;;1.20;0.90;;;11.60;81.10;;;11.85;66.21;95653.03;5100812;27;20466;-76
2023/03/10 08:45:32;;;;;;;1.40;1.30;;;11.80;81.20;;;12.02;65.64;95662.69;5116317;27;20453;-72
2023/03/10 08:48:00;;;;;;;2.70;1.50;;;12.00;80.90;;;11.67;65.93;95657.19;5080701;28;20462;-76
2023/03/10 08:50:27;;;;;;;2.13;0.93;;;11.90;80.10;;;12.34;62.70;95650.50;5100692;28;20545;-71
2023/03/10 08:52:54;;;;;;;2.57;1.60;;;12.10;79.50;;;12.33;62.39;95648.88;5107895;28;20449;-72
2023/03/10 08:55:23;;;;;;;3.77;1.30;;;12.30;78.60;;;12.06;63.72;95663.75;5110138;28;20706;-74
2023/03/10 08:57:50;;;;;;;7.73;1.43;;;12.20;78.90;;;11.96;64.42;95671.91;5112437;27;20458;-70
2023/03/10 09:00:22;;;;;;;4.17;1.47;;;12.10;79.30;;;11.32;66.84;95661.72;5104218;28;20857;-70
2023/03/10 09:02:49;;;;;;;6.03;1.17;;;11.70;80.00;;;11.14;68.06;95668.56;5098265;28;20462;-70
2023/03/10 09:05:16;;;;;;;3.03;1.07;;;11.50;80.70;;;11.52;67.28;95668.09;5096149;28;20458;-71
2023/03/10 09:07:43;;;;;;;4.07;2.47;;;11.50;81.20;;;11.89;67.09;95659.50;5100796;28;20467;-69
2023/03/10 09:10:11;;;;;;;4.73;1.40;;;11.80;81.30;;;11.86;67.34;95670.88;5111128;28;20487;-72
2023/03/10 09:12:38;;;;;;;3.67;1.67;;;11.90;81.50;;;11.46;68.71;95661.94;5088878;28;20463;-73
2023/03/10 09:15:07;;;;;;;2.70;1.60;;;11.80;81.60;;;11.56;69.11;95677.31;5075536;28;20468;-72
2023/03/10 09:17:35;;;;;;;1.10;0.93;;;11.60;82.20;;;11.57;68.66;95674.31;5076416;28;20462;-73
2023/03/10 09:20:05;;;;;;;2.50;1.07;;;11.60;82.20;;;11.56;69.66;95669.97;5075439;28;20446;-73
2023/03/10 09:22:32;;;;;;;3.50;1.40;;;11.60;82.90;;;11.75;69.21;95661.22;5080633;28;20450;-71
2023/03/10 09:24:59;;;;;;;0.80;0.70;;;11.80;83.00;;;12.24;68.10;95664.16;5078163;28;20461;-73
2023/03/10 09:27:27;;;;;;;3.20;1.27;;;12.10;82.80;;;12.32;67.37;95664.34;5077561;28;20462;-74
2023/03/10 09:29:54;;;;;;;2.33;1.60;;;12.30;82.20;;;12.22;67.46;95660.91;5088184;28;20458;-72
2023/03/10 09:32:21;;;;;;;2.20;1.27;;;12.30;81.90;;;12.39;66.53;95653.19;5070369;28;20459;-72
2023/03/10 09:34:50;;;;;;;2.27;1.30;;;12.30;81.50;;;12.81;65.47;95652.75;5098238;27;20513;-73
2023/03/10 09:37:17;;;;;;;1.23;1.00;;;12.60;81.40;;;12.69;65.71;95648.56;5098831;27;20554;-73
2023/03/10 09:39:44;;;;;;;1.73;0.70;;;12.70;81.00;;;12.61;65.44;95646.47;5082241;28;20460;-70
2023/03/10 09:42:35;;;;;;;1.43;1.00;;;12.80;80.80;;;12.78;64.75;95634.38;5075806;28;20944;-71
2023/03/10 09:45:21;;;;;;;1.53;0.77;;;12.80;80.40;;;12.40;64.66;95592.53;5093661;28;20686;-71
2023/03/10 09:48:06;;;;;;;1.67;1.17;;;12.80;80.20;;;12.78;64.08;95624.34;5095032;28;20516;-73
2023/03/10 09:50:40;;;;;;;1.57;1.10;;;12.90;79.70;;;12.85;64.39;95624.78;5078954;28;20470;-69
2023/03/10 09:53:27;;;;;;;2.30;1.10;;;13.00;80.20;;;13.31;62.24;95620.72;5088830;28;20447;-71
2023/03/10 09:55:55;;;;;;;1.20;1.07;;;13.20;79.10;;;13.21;62.70;95618.13;5079277;28;20446;-73
2023/03/10 09:58:32;;;;;;;1.63;0.90;;;13.30;78.70;;;13.33;61.43;95615.00;5102406;27;20455;-72
2023/03/10 10:01:01;;;;;;;1.03;0.90;;;13.50;78.20;;;13.81;59.88;95622.22;5085982;28;20453;-71
2023/03/10 10:03:35;;;;;;;1.33;0.83;;;13.70;77.70;;;13.12;62.35;95609.06;5079126;28;20441;-76
2023/03/10 10:06:06;;;;;;;2.20;1.90;;;13.50;77.60;;;13.82;59.85;95602.09;5079225;28;20445;-71
2023/03/10 10:08:42;;;;;;;1.80;1.67;;;13.70;77.30;;;14.38;57.58;95605.00;5087344;28;20476;-75
2023/03/10 10:11:15;;;;;;;1.30;1.03;;;14.10;76.10;;;14.40;57.18;95605.50;5079280;28;20474;-74
2023/03/10 10:13:43;;;;;;;1.83;0.80;;;14.40;75.50;;;13.92;59.21;95600.34;5087123;28;21020;-72
2023/03/10 10:16:29;;;;;;;2.70;0.60;;;14.10;75.40;;;13.19;61.54;95606.78;5082655;28;20580;-69
2023/03/10 10:19:05;;;;;;;0.87;0.40;;;13.60;76.70;;;11.76;67.83;95619.56;5075866;28;20464;-72
2023/03/10 10:21:42;;;;;;;1.37;0.70;;;12.40;79.70;;;11.54;68.73;95634.31;5100747;27;20478;-74
2023/03/10 10:24:10;;;;;;;2.53;0.50;;;11.80;81.00;;;11.22;70.65;95640.97;5077777;28;21007;-71
2023/03/10 10:26:37;;;;;;;0.60;0.40;;;11.50;82.30;;;10.71;71.61;95637.41;5095754;28;20474;-73
2023/03/10 10:29:16;;;;;;;3.50;0.50;;;11.20;82.70;;;10.87;71.93;95648.16;5095438;28;21070;-73
2023/03/10 10:32:02;;;;;;;2.10;0.70;;;11.00;83.80;;;10.61;73.69;95656.31;5076388;28;20546;-72
2023/03/10 10:34:30;;;;;;;0.97;0.60;;;10.90;85.00;;;10.25;74.61;95654.44;5090042;28;20609;-72
2023/03/10 10:37:00;;;;;;;1.00;0.60;;;10.60;86.70;;;9.92;75.56;95649.31;5078994;28;20873;-69